sensor_id;sensor_type;location;lat;lon;timestamp;temperature;humidity
11536;DHT22;5824;49.336;8.652;2023-04-03T00:01:28;5.20;1.00
11536;DHT22;5824;49.336;8.652;2023-04-03T00:03:54;5.10;1.00
11536;DHT22;5824;49.336;8.652;2023-04-03T00:06:20;5.10;1.00
11536;DHT22;5824;49.336;8.652;2023-04-03T00:08:45;5.30;1.00
11536;DHT22;5824;49.336;8.652;2023-04-03T00:11:11;5.10;1.00
11536;DHT22;5824;49.336;8.652;2023-04-03T00:13:38;5.20;1.00
11536;DHT22;5824;49.336;8.652;2023-04-03T00:16:05;5.10;1.00
11536;DHT22;5824;49.336;8.652;2023-04-03T00:18:31;5.10;1.00
11536;DHT22;5824;49.336;8.652;2023-04-03T00:20:56;5.10;1.00
11536;DHT22;5824;49.336;8.652;2023-04-03T00:23:22;5.00;1.00
11536;DHT22;5824;49.336;8.652;2023-04-03T00:25:49;5.40;1.00
11536;DHT22;5824;49.336;8.652;2023-04-03T00:28:15;5.00;1.00
11536;DHT22;5824;49.336;8.652;2023-04-03T00:30:40;5.00;1.00
11536;DHT22;5824;49.336;8.652;2023-04-03T00:33:06;4.90;1.00
11536;DHT22;5824;49.336;8.652;2023-04-03T00:35:32;4.90;1.00
11536;DHT22;5824;49.336;8.652;2023-04-03T00:37:59;4.90;1.00
11536;DHT22;5824;49.336;8.652;2023-04-03T00:40:26;4.90;1.00
11536;DHT22;5824;49.336;8.652;2023-04-03T00:42:56;4.80;1.00
11536;DHT22;5824;49.336;8.652;2023-04-03T00:45:26;4.80;1.00
11536;DHT22;5824;49.336;8.652;2023-04-03T00:47:52;4.80;1.00
11536;DHT22;5824;49.336;8.652;2023-04-03T00:50:18;4.80;1.00
11536;DHT22;5824;49.336;8.652;2023-04-03T00:52:44;4.80;1.00
11536;DHT22;5824;49.336;8.652;2023-04-03T00:55:12;4.70;1.00
11536;DHT22;5824;49.336;8.652;2023-04-03T00:57:40;4.70;1.00
11536;DHT22;5824;49.336;8.652;2023-04-03T01:00:09;4.70;1.00
11536;DHT22;5824;49.336;8.652;2023-04-03T01:02:35;4.60;1.00
11536;DHT22;5824;49.336;8.652;2023-04-03T01:05:01;4.70;1.00
11536;DHT22;5824;49.336;8.652;2023-04-03T01:07:29;4.60;1.00
11536;DHT22;5824;49.336;8.652;2023-04-03T01:10:00;4.70;1.00
11536;DHT22;5824;49.336;8.652;2023-04-03T01:12:29;4.70;1.00
11536;DHT22;5824;49.336;8.652;2023-04-03T01:14:57;4.70;1.00
11536;DHT22;5824;49.336;8.652;2023-04-03T01:17:27;5.00;1.00
11536;DHT22;5824;49.336;8.652;2023-04-03T01:23:11;4.50;1.00
11536;DHT22;5824;49.336;8.652;2023-04-03T01:25:42;4.50;1.00
11536;DHT22;5824;49.336;8.652;2023-04-03T01:28:11;4.40;1.00
11536;DHT22;5824;49.336;8.652;2023-04-03T01:30:45;4.40;1.00
11536;DHT22;5824;49.336;8.652;2023-04-03T01:33:13;4.40;1.00
11536;DHT22;5824;49.336;8.652;2023-04-03T01:35:38;4.40;1.00
11536;DHT22;5824;49.336;8.652;2023-04-03T01:38:04;4.40;1.00
11536;DHT22;5824;49.336;8.652;2023-04-03T01:40:30;4.30;1.00
11536;DHT22;5824;49.336;8.652;2023-04-03T01:42:55;4.30;1.00
11536;DHT22;5824;49.336;8.652;2023-04-03T01:45:21;4.30;1.00
11536;DHT22;5824;49.336;8.652;2023-04-03T01:47:47;4.30;1.00
11536;DHT22;5824;49.336;8.652;2023-04-03T01:50:13;4.30;1.00
11536;DHT22;5824;49.336;8.652;2023-04-03T01:52:38;4.30;1.00
11536;DHT22;5824;49.336;8.652;2023-04-03T01:55:05;4.20;1.00
11536;DHT22;5824;49.336;8.652;2023-04-03T01:57:31;4.20;1.00
11536;DHT22;5824;49.336;8.652;2023-04-03T01:59:56;4.60;1.00
11536;DHT22;5824;49.336;8.652;2023-04-03T02:02:21;4.30;1.00
11536;DHT22;5824;49.336;8.652;2023-04-03T02:04:47;4.60;1.00
11536;DHT22;5824;49.336;8.652;2023-04-03T02:07:12;4.30;1.00
11536;DHT22;5824;49.336;8.652;2023-04-03T02:09:38;4.30;1.00
11536;DHT22;5824;49.336;8.652;2023-04-03T02:12:03;4.30;1.00
11536;DHT22;5824;49.336;8.652;2023-04-03T02:14:29;4.30;1.00
11536;DHT22;5824;49.336;8.652;2023-04-03T02:16:55;4.30;1.00
11536;DHT22;5824;49.336;8.652;2023-04-03T02:19:20;4.20;1.00
11536;DHT22;5824;49.336;8.652;2023-04-03T02:21:46;4.30;1.00
11536;DHT22;5824;49.336;8.652;2023-04-03T02:24:11;4.30;1.00
11536;DHT22;5824;49.336;8.652;2023-04-03T02:26:37;4.60;1.00
11536;DHT22;5824;49.336;8.652;2023-04-03T02:29:02;4.30;1.00
11536;DHT22;5824;49.336;8.652;2023-04-03T02:31:28;4.50;1.00
11536;DHT22;5824;49.336;8.652;2023-04-03T02:33:53;4.40;1.00
11536;DHT22;5824;49.336;8.652;2023-04-03T02:36:19;4.40;1.00
11536;DHT22;5824;49.336;8.652;2023-04-03T02:38:45;4.50;1.00
11536;DHT22;5824;49.336;8.652;2023-04-03T02:41:11;4.50;1.00
11536;DHT22;5824;49.336;8.652;2023-04-03T02:43:38;4.50;1.00
11536;DHT22;5824;49.336;8.652;2023-04-03T02:46:04;4.50;1.00
11536;DHT22;5824;49.336;8.652;2023-04-03T02:48:29;4.40;1.00
11536;DHT22;5824;49.336;8.652;2023-04-03T02:50:55;4.50;1.00
11536;DHT22;5824;49.336;8.652;2023-04-03T02:53:21;4.70;1.00
11536;DHT22;5824;49.336;8.652;2023-04-03T02:55:46;4.50;1.00
11536;DHT22;5824;49.336;8.652;2023-04-03T02:58:12;4.50;1.00
11536;DHT22;5824;49.336;8.652;2023-04-03T03:00:37;4.60;1.00
11536;DHT22;5824;49.336;8.652;2023-04-03T03:03:03;4.60;1.00
11536;DHT22;5824;49.336;8.652;2023-04-03T03:05:29;4.60;1.00
11536;DHT22;5824;49.336;8.652;2023-04-03T03:07:55;4.80;1.00
11536;DHT22;5824;49.336;8.652;2023-04-03T03:10:21;5.00;1.00
11536;DHT22;5824;49.336;8.652;2023-04-03T03:12:47;4.90;1.00
11536;DHT22;5824;49.336;8.652;2023-04-03T03:15:12;5.00;1.00
11536;DHT22;5824;49.336;8.652;2023-04-03T03:17:38;5.10;1.00
11536;DHT22;5824;49.336;8.652;2023-04-03T03:20:05;5.10;1.00
11536;DHT22;5824;49.336;8.652;2023-04-03T03:22:31;5.10;1.00
11536;DHT22;5824;49.336;8.652;2023-04-03T03:24:56;5.10;1.00
11536;DHT22;5824;49.336;8.652;2023-04-03T03:27:22;5.10;1.00
11536;DHT22;5824;49.336;8.652;2023-04-03T03:29:47;5.00;1.00
11536;DHT22;5824;49.336;8.652;2023-04-03T03:32:13;4.80;1.00
11536;DHT22;5824;49.336;8.652;2023-04-03T03:34:38;4.70;1.00
11536;DHT22;5824;49.336;8.652;2023-04-03T03:37:04;4.60;1.00
11536;DHT22;5824;49.336;8.652;2023-04-03T03:39:30;4.50;1.00
11536;DHT22;5824;49.336;8.652;2023-04-03T03:41:55;4.50;1.00
11536;DHT22;5824;49.336;8.652;2023-04-03T03:44:21;4.40;1.00
11536;DHT22;5824;49.336;8.652;2023-04-03T03:46:46;4.40;1.00
11536;DHT22;5824;49.336;8.652;2023-04-03T03:49:12;4.30;1.00
11536;DHT22;5824;49.336;8.652;2023-04-03T03:51:38;4.30;1.00
11536;DHT22;5824;49.336;8.652;2023-04-03T03:54:04;4.20;1.00
11536;DHT22;5824;49.336;8.652;2023-04-03T03:56:30;4.20;1.00
11536;DHT22;5824;49.336;8.652;2023-04-03T03:58:56;4.10;1.00
11536;DHT22;5824;49.336;8.652;2023-04-03T04:01:23;4.10;1.00
11536;DHT22;5824;49.336;8.652;2023-04-03T04:03:49;4.00;1.00
11536;DHT22;5824;49.336;8.652;2023-04-03T04:06:15;4.40;1.00
11536;DHT22;5824;49.336;8.652;2023-04-03T04:08:41;3.90;1.00
11536;DHT22;5824;49.336;8.652;2023-04-03T04:11:07;3.90;1.00
11536;DHT22;5824;49.336;8.652;2023-04-03T04:13:32;3.80;1.00
11536;DHT22;5824;49.336;8.652;2023-04-03T04:15:58;3.80;1.00
11536;DHT22;5824;49.336;8.652;2023-04-03T04:18:23;3.70;1.00
11536;DHT22;5824;49.336;8.652;2023-04-03T04:20:49;3.80;1.00
11536;DHT22;5824;49.336;8.652;2023-04-03T04:23:16;3.90;1.00
11536;DHT22;5824;49.336;8.652;2023-04-03T04:25:45;3.70;1.00
11536;DHT22;5824;49.336;8.652;2023-04-03T04:28:10;3.70;1.00
11536;DHT22;5824;49.336;8.652;2023-04-03T04:30:36;3.60;1.00
11536;DHT22;5824;49.336;8.652;2023-04-03T04:33:02;3.60;1.00
11536;DHT22;5824;49.336;8.652;2023-04-03T04:35:27;3.60;1.00
11536;DHT22;5824;49.336;8.652;2023-04-03T04:37:53;3.50;1.00
11536;DHT22;5824;49.336;8.652;2023-04-03T04:40:19;3.50;1.00
11536;DHT22;5824;49.336;8.652;2023-04-03T04:42:44;3.50;1.00
11536;DHT22;5824;49.336;8.652;2023-04-03T04:45:10;3.50;1.00
11536;DHT22;5824;49.336;8.652;2023-04-03T04:47:35;3.50;1.00
11536;DHT22;5824;49.336;8.652;2023-04-03T04:50:01;3.50;1.00
11536;DHT22;5824;49.336;8.652;2023-04-03T04:52:26;3.40;1.00
11536;DHT22;5824;49.336;8.652;2023-04-03T04:54:52;3.40;1.00
11536;DHT22;5824;49.336;8.652;2023-04-03T04:57:18;3.40;1.00
11536;DHT22;5824;49.336;8.652;2023-04-03T04:59:43;3.40;1.00
11536;DHT22;5824;49.336;8.652;2023-04-03T05:02:09;3.40;1.00
11536;DHT22;5824;49.336;8.652;2023-04-03T05:04:34;3.40;1.00
11536;DHT22;5824;49.336;8.652;2023-04-03T05:07:00;3.40;1.00
11536;DHT22;5824;49.336;8.652;2023-04-03T05:09:25;3.30;1.00
11536;DHT22;5824;49.336;8.652;2023-04-03T05:11:51;3.40;1.00
11536;DHT22;5824;49.336;8.652;2023-04-03T05:14:16;3.40;1.00
11536;DHT22;5824;49.336;8.652;2023-04-03T05:16:42;3.40;1.00
11536;DHT22;5824;49.336;8.652;2023-04-03T05:19:08;3.40;1.00
11536;DHT22;5824;49.336;8.652;2023-04-03T05:21:33;3.40;1.00
11536;DHT22;5824;49.336;8.652;2023-04-03T05:24:00;3.50;1.00
11536;DHT22;5824;49.336;8.652;2023-04-03T05:26:30;3.50;1.00
11536;DHT22;5824;49.336;8.652;2023-04-03T05:28:56;3.60;1.00
11536;DHT22;5824;49.336;8.652;2023-04-03T05:31:22;3.70;1.00
11536;DHT22;5824;49.336;8.652;2023-04-03T05:33:48;3.70;1.00
11536;DHT22;5824;49.336;8.652;2023-04-03T05:36:13;3.70;1.00
11536;DHT22;5824;49.336;8.652;2023-04-03T05:38:39;3.60;1.00
11536;DHT22;5824;49.336;8.652;2023-04-03T05:41:05;3.60;1.00
11536;DHT22;5824;49.336;8.652;2023-04-03T05:43:31;3.60;1.00
11536;DHT22;5824;49.336;8.652;2023-04-03T05:45:56;3.70;1.00
11536;DHT22;5824;49.336;8.652;2023-04-03T05:48:22;3.70;1.00
11536;DHT22;5824;49.336;8.652;2023-04-03T05:50:48;3.80;1.00
11536;DHT22;5824;49.336;8.652;2023-04-03T05:53:26;3.90;1.00
11536;DHT22;5824;49.336;8.652;2023-04-03T05:55:53;4.10;1.00
11536;DHT22;5824;49.336;8.652;2023-04-03T05:58:19;4.20;1.00
11536;DHT22;5824;49.336;8.652;2023-04-03T06:00:44;4.10;1.00
11536;DHT22;5824;49.336;8.652;2023-04-03T06:03:10;4.20;1.00
11536;DHT22;5824;49.336;8.652;2023-04-03T06:05:36;4.20;1.00
11536;DHT22;5824;49.336;8.652;2023-04-03T06:08:02;4.30;1.00
11536;DHT22;5824;49.336;8.652;2023-04-03T06:10:28;4.40;1.00
11536;DHT22;5824;49.336;8.652;2023-04-03T06:12:54;4.60;1.00
11536;DHT22;5824;49.336;8.652;2023-04-03T06:15:19;4.80;1.00
11536;DHT22;5824;49.336;8.652;2023-04-03T06:17:45;5.00;1.00
11536;DHT22;5824;49.336;8.652;2023-04-03T06:20:11;5.20;1.00
11536;DHT22;5824;49.336;8.652;2023-04-03T06:22:37;5.40;1.00
11536;DHT22;5824;49.336;8.652;2023-04-03T06:25:03;5.60;1.00
11536;DHT22;5824;49.336;8.652;2023-04-03T06:27:30;5.80;1.00
11536;DHT22;5824;49.336;8.652;2023-04-03T06:29:55;6.00;1.00
11536;DHT22;5824;49.336;8.652;2023-04-03T06:32:21;6.30;1.00
11536;DHT22;5824;49.336;8.652;2023-04-03T06:34:47;6.30;1.00
11536;DHT22;5824;49.336;8.652;2023-04-03T06:37:17;7.00;1.00
11536;DHT22;5824;49.336;8.652;2023-04-03T06:39:43;7.40;1.00
11536;DHT22;5824;49.336;8.652;2023-04-03T06:42:09;8.20;1.00
11536;DHT22;5824;49.336;8.652;2023-04-03T06:44:35;8.90;1.00
11536;DHT22;5824;49.336;8.652;2023-04-03T06:47:01;9.60;1.00
11536;DHT22;5824;49.336;8.652;2023-04-03T06:49:26;10.40;1.00
11536;DHT22;5824;49.336;8.652;2023-04-03T06:51:52;11.10;1.00
11536;DHT22;5824;49.336;8.652;2023-04-03T06:54:17;11.40;1.00
11536;DHT22;5824;49.336;8.652;2023-04-03T06:56:43;11.20;1.00
11536;DHT22;5824;49.336;8.652;2023-04-03T06:59:10;10.80;1.00
11536;DHT22;5824;49.336;8.652;2023-04-03T07:01:35;9.90;1.00
11536;DHT22;5824;49.336;8.652;2023-04-03T07:04:01;9.80;1.00
11536;DHT22;5824;49.336;8.652;2023-04-03T07:06:26;10.00;1.00
11536;DHT22;5824;49.336;8.652;2023-04-03T07:08:52;10.60;1.00
11536;DHT22;5824;49.336;8.652;2023-04-03T07:11:18;11.10;1.00
11536;DHT22;5824;49.336;8.652;2023-04-03T07:13:44;11.10;1.00
11536;DHT22;5824;49.336;8.652;2023-04-03T07:16:10;11.00;1.00
11536;DHT22;5824;49.336;8.652;2023-04-03T07:18:36;10.40;1.00
11536;DHT22;5824;49.336;8.652;2023-04-03T07:21:02;10.10;1.00
11536;DHT22;5824;49.336;8.652;2023-04-03T07:23:28;9.90;1.00
11536;DHT22;5824;49.336;8.652;2023-04-03T07:25:54;10.10;1.00
11536;DHT22;5824;49.336;8.652;2023-04-03T07:28:20;10.80;1.00
11536;DHT22;5824;49.336;8.652;2023-04-03T07:30:52;11.90;1.00
11536;DHT22;5824;49.336;8.652;2023-04-03T07:33:20;13.20;1.00
11536;DHT22;5824;49.336;8.652;2023-04-03T07:35:46;14.20;1.00
11536;DHT22;5824;49.336;8.652;2023-04-03T07:38:11;15.00;1.00
11536;DHT22;5824;49.336;8.652;2023-04-03T07:40:38;15.50;1.00
11536;DHT22;5824;49.336;8.652;2023-04-03T07:43:04;16.10;1.00
11536;DHT22;5824;49.336;8.652;2023-04-03T07:45:30;16.60;1.00
11536;DHT22;5824;49.336;8.652;2023-04-03T07:47:56;17.20;1.00
11536;DHT22;5824;49.336;8.652;2023-04-03T07:50:22;17.70;1.00
11536;DHT22;5824;49.336;8.652;2023-04-03T07:52:47;18.00;1.00
11536;DHT22;5824;49.336;8.652;2023-04-03T07:55:14;18.20;1.00
11536;DHT22;5824;49.336;8.652;2023-04-03T07:57:39;18.60;1.00
11536;DHT22;5824;49.336;8.652;2023-04-03T08:00:06;18.50;1.00
11536;DHT22;5824;49.336;8.652;2023-04-03T08:02:31;19.00;1.00
11536;DHT22;5824;49.336;8.652;2023-04-03T08:05:00;19.10;1.00
11536;DHT22;5824;49.336;8.652;2023-04-03T08:07:26;19.30;1.00
11536;DHT22;5824;49.336;8.652;2023-04-03T08:09:51;19.30;1.00
11536;DHT22;5824;49.336;8.652;2023-04-03T08:12:17;20.30;1.00
11536;DHT22;5824;49.336;8.652;2023-04-03T08:14:43;20.20;1.00
11536;DHT22;5824;49.336;8.652;2023-04-03T08:17:09;20.70;1.00
11536;DHT22;5824;49.336;8.652;2023-04-03T08:19:38;20.90;1.00
11536;DHT22;5824;49.336;8.652;2023-04-03T08:22:04;20.90;1.00
11536;DHT22;5824;49.336;8.652;2023-04-03T08:24:30;21.10;1.00
11536;DHT22;5824;49.336;8.652;2023-04-03T08:26:56;21.00;1.00
11536;DHT22;5824;49.336;8.652;2023-04-03T08:29:22;21.00;1.00
11536;DHT22;5824;49.336;8.652;2023-04-03T08:31:48;21.20;1.00
11536;DHT22;5824;49.336;8.652;2023-04-03T08:34:15;21.30;1.00
11536;DHT22;5824;49.336;8.652;2023-04-03T08:36:41;21.60;1.00
11536;DHT22;5824;49.336;8.652;2023-04-03T08:39:06;21.60;1.00
11536;DHT22;5824;49.336;8.652;2023-04-03T08:41:35;21.90;1.00
11536;DHT22;5824;49.336;8.652;2023-04-03T08:49:32;22.00;1.00
11536;DHT22;5824;49.336;8.652;2023-04-03T08:52:01;21.90;1.00
11536;DHT22;5824;49.336;8.652;2023-04-03T08:54:32;22.10;1.00
11536;DHT22;5824;49.336;8.652;2023-04-03T08:57:00;22.10;1.00
11536;DHT22;5824;49.336;8.652;2023-04-03T08:59:31;22.10;1.00
11536;DHT22;5824;49.336;8.652;2023-04-03T09:01:59;21.70;1.00
11536;DHT22;5824;49.336;8.652;2023-04-03T09:04:29;21.80;1.00
11536;DHT22;5824;49.336;8.652;2023-04-03T09:07:04;22.60;1.00
11536;DHT22;5824;49.336;8.652;2023-04-03T09:09:41;23.00;1.00
11536;DHT22;5824;49.336;8.652;2023-04-03T09:15:04;23.30;1.00
11536;DHT22;5824;49.336;8.652;2023-04-03T09:20:39;22.50;1.00
11536;DHT22;5824;49.336;8.652;2023-04-03T09:23:30;22.60;1.00
11536;DHT22;5824;49.336;8.652;2023-04-03T09:26:35;23.40;1.00
11536;DHT22;5824;49.336;8.652;2023-04-03T09:29:04;24.30;1.00
11536;DHT22;5824;49.336;8.652;2023-04-03T09:31:37;24.40;1.00
11536;DHT22;5824;49.336;8.652;2023-04-03T09:34:11;24.40;1.00
11536;DHT22;5824;49.336;8.652;2023-04-03T09:36:52;25.00;1.00
11536;DHT22;5824;49.336;8.652;2023-04-03T09:39:20;24.90;1.00
11536;DHT22;5824;49.336;8.652;2023-04-03T09:42:05;24.30;1.00
11536;DHT22;5824;49.336;8.652;2023-04-03T09:44:34;24.60;1.00
11536;DHT22;5824;49.336;8.652;2023-04-03T09:47:37;25.30;1.00
11536;DHT22;5824;49.336;8.652;2023-04-03T09:50:20;26.50;1.00
11536;DHT22;5824;49.336;8.652;2023-04-03T09:52:50;26.90;1.00
11536;DHT22;5824;49.336;8.652;2023-04-03T09:57:45;26.10;1.00
11536;DHT22;5824;49.336;8.652;2023-04-03T10:00:33;26.40;1.00
11536;DHT22;5824;49.336;8.652;2023-04-03T10:03:00;25.80;1.00
11536;DHT22;5824;49.336;8.652;2023-04-03T10:05:27;23.70;1.00
11536;DHT22;5824;49.336;8.652;2023-04-03T10:08:08;21.80;1.00
11536;DHT22;5824;49.336;8.652;2023-04-03T10:10:34;20.90;1.00
11536;DHT22;5824;49.336;8.652;2023-04-03T10:13:20;19.40;1.00
11536;DHT22;5824;49.336;8.652;2023-04-03T10:15:55;19.00;1.00
11536;DHT22;5824;49.336;8.652;2023-04-03T10:24:30;24.60;1.00
11536;DHT22;5824;49.336;8.652;2023-04-03T10:32:12;23.60;1.00
11536;DHT22;5824;49.336;8.652;2023-04-03T10:34:46;21.00;1.00
11536;DHT22;5824;49.336;8.652;2023-04-03T10:39:57;17.80;1.00
11536;DHT22;5824;49.336;8.652;2023-04-03T10:42:41;16.50;1.00
11536;DHT22;5824;49.336;8.652;2023-04-03T10:45:30;16.40;1.00
11536;DHT22;5824;49.336;8.652;2023-04-03T10:51:28;17.90;1.00
11536;DHT22;5824;49.336;8.652;2023-04-03T11:02:24;18.40;1.00
11536;DHT22;5824;49.336;8.652;2023-04-03T11:04:55;18.40;1.00
11536;DHT22;5824;49.336;8.652;2023-04-03T11:07:38;19.30;1.00
11536;DHT22;5824;49.336;8.652;2023-04-03T11:10:20;18.70;1.00
11536;DHT22;5824;49.336;8.652;2023-04-03T11:13:21;17.50;1.00
11536;DHT22;5824;49.336;8.652;2023-04-03T11:15:49;17.20;1.00
11536;DHT22;5824;49.336;8.652;2023-04-03T11:18:28;16.30;1.00
11536;DHT22;5824;49.336;8.652;2023-04-03T11:21:04;15.60;1.00
11536;DHT22;5824;49.336;8.652;2023-04-03T11:23:36;14.70;1.00
11536;DHT22;5824;49.336;8.652;2023-04-03T11:26:10;14.40;1.00
11536;DHT22;5824;49.336;8.652;2023-04-03T11:28:37;14.10;1.00
11536;DHT22;5824;49.336;8.652;2023-04-03T11:36:42;15.30;1.00
11536;DHT22;5824;49.336;8.652;2023-04-03T11:41:45;14.90;1.00
11536;DHT22;5824;49.336;8.652;2023-04-03T11:44:32;14.70;1.00
11536;DHT22;5824;49.336;8.652;2023-04-03T11:46:59;14.40;1.00
11536;DHT22;5824;49.336;8.652;2023-04-03T11:49:56;14.40;1.00
11536;DHT22;5824;49.336;8.652;2023-04-03T12:00:47;14.10;1.00
11536;DHT22;5824;49.336;8.652;2023-04-03T12:08:45;13.60;1.00
11536;DHT22;5824;49.336;8.652;2023-04-03T12:24:00;14.00;1.00
11536;DHT22;5824;49.336;8.652;2023-04-03T12:29:23;14.00;1.00
11536;DHT22;5824;49.336;8.652;2023-04-03T12:34:57;13.20;1.00
11536;DHT22;5824;49.336;8.652;2023-04-03T12:38:13;13.50;1.00
11536;DHT22;5824;49.336;8.652;2023-04-03T12:46:16;16.90;1.00
11536;DHT22;5824;49.336;8.652;2023-04-03T12:48:51;15.80;1.00
11536;DHT22;5824;49.336;8.652;2023-04-03T12:51:34;15.00;1.00
11536;DHT22;5824;49.336;8.652;2023-04-03T12:54:13;14.20;1.00
11536;DHT22;5824;49.336;8.652;2023-04-03T12:56:39;14.00;1.00
11536;DHT22;5824;49.336;8.652;2023-04-03T12:59:25;14.20;1.00
11536;DHT22;5824;49.336;8.652;2023-04-03T13:01:59;15.20;1.00
11536;DHT22;5824;49.336;8.652;2023-04-03T13:04:26;15.50;1.00
11536;DHT22;5824;49.336;8.652;2023-04-03T13:06:52;15.00;1.00
11536;DHT22;5824;49.336;8.652;2023-04-03T13:09:21;14.50;1.00
11536;DHT22;5824;49.336;8.652;2023-04-03T13:11:49;14.50;1.00
11536;DHT22;5824;49.336;8.652;2023-04-03T13:14:20;15.40;1.00
11536;DHT22;5824;49.336;8.652;2023-04-03T13:19:22;20.90;1.00
11536;DHT22;5824;49.336;8.652;2023-04-03T13:21:49;22.50;1.00
11536;DHT22;5824;49.336;8.652;2023-04-03T13:24:17;23.40;1.00
11536;DHT22;5824;49.336;8.652;2023-04-03T13:26:42;24.00;1.00
11536;DHT22;5824;49.336;8.652;2023-04-03T13:29:21;22.00;1.00
11536;DHT22;5824;49.336;8.652;2023-04-03T13:31:53;20.10;1.00
11536;DHT22;5824;49.336;8.652;2023-04-03T13:34:20;18.80;1.00
11536;DHT22;5824;49.336;8.652;2023-04-03T13:37:00;17.40;1.00
11536;DHT22;5824;49.336;8.652;2023-04-03T13:39:29;16.60;1.00
11536;DHT22;5824;49.336;8.652;2023-04-03T13:42:22;18.20;1.00
11536;DHT22;5824;49.336;8.652;2023-04-03T13:44:48;21.40;1.00
11536;DHT22;5824;49.336;8.652;2023-04-03T13:47:22;23.20;1.00
11536;DHT22;5824;49.336;8.652;2023-04-03T13:55:23;26.30;1.00
11536;DHT22;5824;49.336;8.652;2023-04-03T13:58:00;26.50;1.00
11536;DHT22;5824;49.336;8.652;2023-04-03T14:03:00;27.60;1.00
11536;DHT22;5824;49.336;8.652;2023-04-03T14:05:26;26.40;1.00
11536;DHT22;5824;49.336;8.652;2023-04-03T14:07:53;23.40;1.00
11536;DHT22;5824;49.336;8.652;2023-04-03T14:10:20;20.60;1.00
11536;DHT22;5824;49.336;8.652;2023-04-03T14:12:46;18.90;1.00
11536;DHT22;5824;49.336;8.652;2023-04-03T14:15:21;17.40;1.00
11536;DHT22;5824;49.336;8.652;2023-04-03T14:17:49;17.00;1.00
11536;DHT22;5824;49.336;8.652;2023-04-03T14:20:16;19.10;1.00
11536;DHT22;5824;49.336;8.652;2023-04-03T14:22:42;21.20;1.00
11536;DHT22;5824;49.336;8.652;2023-04-03T14:25:08;22.40;1.00
11536;DHT22;5824;49.336;8.652;2023-04-03T14:27:40;22.80;1.00
11536;DHT22;5824;49.336;8.652;2023-04-03T14:30:12;23.00;1.00
11536;DHT22;5824;49.336;8.652;2023-04-03T14:32:38;23.30;1.00
11536;DHT22;5824;49.336;8.652;2023-04-03T14:35:04;21.60;1.00
11536;DHT22;5824;49.336;8.652;2023-04-03T14:37:30;21.10;1.00
11536;DHT22;5824;49.336;8.652;2023-04-03T14:39:58;20.20;1.00
11536;DHT22;5824;49.336;8.652;2023-04-03T14:42:29;20.60;1.00
11536;DHT22;5824;49.336;8.652;2023-04-03T14:44:56;20.70;1.00
11536;DHT22;5824;49.336;8.652;2023-04-03T14:47:25;21.80;1.00
11536;DHT22;5824;49.336;8.652;2023-04-03T14:49:51;23.30;1.00
11536;DHT22;5824;49.336;8.652;2023-04-03T14:52:23;24.30;1.00
11536;DHT22;5824;49.336;8.652;2023-04-03T14:54:50;25.00;1.00
11536;DHT22;5824;49.336;8.652;2023-04-03T14:57:16;24.20;1.00
11536;DHT22;5824;49.336;8.652;2023-04-03T14:59:43;21.80;1.00
11536;DHT22;5824;49.336;8.652;2023-04-03T15:04:44;20.20;1.00
11536;DHT22;5824;49.336;8.652;2023-04-03T15:07:10;21.00;1.00
11536;DHT22;5824;49.336;8.652;2023-04-03T15:09:35;22.10;1.00
11536;DHT22;5824;49.336;8.652;2023-04-03T15:12:02;21.70;1.00
11536;DHT22;5824;49.336;8.652;2023-04-03T15:14:27;21.30;1.00
11536;DHT22;5824;49.336;8.652;2023-04-03T15:16:53;20.80;1.00
11536;DHT22;5824;49.336;8.652;2023-04-03T15:19:18;21.20;1.00
11536;DHT22;5824;49.336;8.652;2023-04-03T15:21:44;21.50;1.00
11536;DHT22;5824;49.336;8.652;2023-04-03T15:24:10;21.90;1.00
11536;DHT22;5824;49.336;8.652;2023-04-03T15:26:36;22.80;1.00
11536;DHT22;5824;49.336;8.652;2023-04-03T15:29:01;23.70;1.00
11536;DHT22;5824;49.336;8.652;2023-04-03T15:31:28;24.40;1.00
11536;DHT22;5824;49.336;8.652;2023-04-03T15:33:53;24.70;1.00
11536;DHT22;5824;49.336;8.652;2023-04-03T15:36:19;25.00;1.00
11536;DHT22;5824;49.336;8.652;2023-04-03T15:38:44;25.20;1.00
11536;DHT22;5824;49.336;8.652;2023-04-03T15:41:10;25.00;1.00
11536;DHT22;5824;49.336;8.652;2023-04-03T15:43:35;24.70;1.00
11536;DHT22;5824;49.336;8.652;2023-04-03T15:46:01;24.00;1.00
11536;DHT22;5824;49.336;8.652;2023-04-03T15:48:28;23.20;1.00
11536;DHT22;5824;49.336;8.652;2023-04-03T15:50:54;21.70;1.00
11536;DHT22;5824;49.336;8.652;2023-04-03T15:53:19;21.40;1.00
11536;DHT22;5824;49.336;8.652;2023-04-03T15:55:45;21.10;1.00
11536;DHT22;5824;49.336;8.652;2023-04-03T15:58:10;20.80;1.00
11536;DHT22;5824;49.336;8.652;2023-04-03T16:00:36;20.70;1.00
11536;DHT22;5824;49.336;8.652;2023-04-03T16:03:07;19.50;1.00
11536;DHT22;5824;49.336;8.652;2023-04-03T16:05:35;17.40;1.00
11536;DHT22;5824;49.336;8.652;2023-04-03T16:08:02;15.90;1.00
11536;DHT22;5824;49.336;8.652;2023-04-03T16:10:28;15.20;1.00
11536;DHT22;5824;49.336;8.652;2023-04-03T16:12:54;14.80;1.00
11536;DHT22;5824;49.336;8.652;2023-04-03T16:15:19;14.70;1.00
11536;DHT22;5824;49.336;8.652;2023-04-03T16:17:45;15.50;1.00
11536;DHT22;5824;49.336;8.652;2023-04-03T16:20:11;16.60;1.00
11536;DHT22;5824;49.336;8.652;2023-04-03T16:22:38;16.30;1.00
11536;DHT22;5824;49.336;8.652;2023-04-03T16:25:06;16.20;1.00
11536;DHT22;5824;49.336;8.652;2023-04-03T16:27:32;15.40;1.00
11536;DHT22;5824;49.336;8.652;2023-04-03T16:29:58;15.00;1.00
11536;DHT22;5824;49.336;8.652;2023-04-03T16:32:24;15.00;1.00
11536;DHT22;5824;49.336;8.652;2023-04-03T16:34:51;15.00;1.00
11536;DHT22;5824;49.336;8.652;2023-04-03T16:37:17;14.50;1.00
11536;DHT22;5824;49.336;8.652;2023-04-03T16:39:43;13.90;1.00
11536;DHT22;5824;49.336;8.652;2023-04-03T16:42:08;13.30;1.00
11536;DHT22;5824;49.336;8.652;2023-04-03T16:44:35;14.00;1.00
11536;DHT22;5824;49.336;8.652;2023-04-03T16:47:01;12.10;1.00
11536;DHT22;5824;49.336;8.652;2023-04-03T16:49:26;12.00;1.00
11536;DHT22;5824;49.336;8.652;2023-04-03T16:51:57;11.60;1.00
11536;DHT22;5824;49.336;8.652;2023-04-03T16:54:23;11.40;1.00
11536;DHT22;5824;49.336;8.652;2023-04-03T16:56:48;11.20;1.00
11536;DHT22;5824;49.336;8.652;2023-04-03T16:59:14;11.10;1.00
11536;DHT22;5824;49.336;8.652;2023-04-03T17:01:39;10.90;1.00
11536;DHT22;5824;49.336;8.652;2023-04-03T17:04:05;10.70;1.00
11536;DHT22;5824;49.336;8.652;2023-04-03T17:06:31;10.70;1.00
11536;DHT22;5824;49.336;8.652;2023-04-03T17:08:56;10.60;1.00
11536;DHT22;5824;49.336;8.652;2023-04-03T17:11:22;10.40;1.00
11536;DHT22;5824;49.336;8.652;2023-04-03T17:13:47;10.20;1.00
11536;DHT22;5824;49.336;8.652;2023-04-03T17:16:14;10.10;1.00
11536;DHT22;5824;49.336;8.652;2023-04-03T17:18:41;10.00;1.00
11536;DHT22;5824;49.336;8.652;2023-04-03T17:21:07;10.00;1.00
11536;DHT22;5824;49.336;8.652;2023-04-03T17:23:34;9.80;1.00
11536;DHT22;5824;49.336;8.652;2023-04-03T17:26:03;9.60;1.00
11536;DHT22;5824;49.336;8.652;2023-04-03T17:28:29;9.60;1.00
11536;DHT22;5824;49.336;8.652;2023-04-03T17:30:59;9.50;1.00
11536;DHT22;5824;49.336;8.652;2023-04-03T17:33:25;9.50;1.00
11536;DHT22;5824;49.336;8.652;2023-04-03T17:35:54;9.40;1.00
11536;DHT22;5824;49.336;8.652;2023-04-03T17:38:20;9.40;1.00
11536;DHT22;5824;49.336;8.652;2023-04-03T17:40:46;9.30;1.00
11536;DHT22;5824;49.336;8.652;2023-04-03T17:43:11;9.20;1.00
11536;DHT22;5824;49.336;8.652;2023-04-03T17:45:37;9.10;1.00
11536;DHT22;5824;49.336;8.652;2023-04-03T18:11:25;8.20;1.00
11536;DHT22;5824;49.336;8.652;2023-04-03T18:13:53;8.20;1.00
11536;DHT22;5824;49.336;8.652;2023-04-03T18:16:19;8.10;1.00
11536;DHT22;5824;49.336;8.652;2023-04-03T18:18:44;8.10;1.00
11536;DHT22;5824;49.336;8.652;2023-04-03T18:34:07;7.80;1.00